createdAt,value
2022-12-27T00:01:45.649Z,75.43
2022-12-27T00:03:57.915Z,75.53
2022-12-27T00:06:11.138Z,74.44
2022-12-27T00:08:22.831Z,75.09
2022-12-27T00:10:35.331Z,74.90
2022-12-27T00:12:47.226Z,75.05
2022-12-27T00:14:59.423Z,75.03
2022-12-27T00:17:10.907Z,75.11
2022-12-27T00:19:23.109Z,75.38
2022-12-27T00:21:36.432Z,75.77
2022-12-27T00:23:53.110Z,75.64
2022-12-27T00:26:07.829Z,75.89
2022-12-27T00:28:19.793Z,76.05
2022-12-27T00:30:32.407Z,76.30
2022-12-27T00:32:44.402Z,76.46
2022-12-27T00:34:56.393Z,75.94
2022-12-27T00:37:08.074Z,75.78
2022-12-27T00:39:19.864Z,75.34
2022-12-27T00:41:31.671Z,75.41
2022-12-27T00:43:43.861Z,75.13
2022-12-27T00:45:57.407Z,74.65
2022-12-27T00:48:09.286Z,74.51
2022-12-27T00:50:21.479Z,74.57
2022-12-27T00:52:33.166Z,74.27
2022-12-27T00:54:45.261Z,74.24
2022-12-27T00:56:56.954Z,74.00
2022-12-27T00:59:11.708Z,73.34
2022-12-27T01:01:25.465Z,73.12
2022-12-27T01:03:38.183Z,72.10
2022-12-27T01:05:50.189Z,72.44
2022-12-27T01:08:02.247Z,72.77
2022-12-27T01:10:13.935Z,72.74
2022-12-27T01:12:26.957Z,72.66
2022-12-27T01:14:38.642Z,72.28
2022-12-27T01:16:50.151Z,72.05
2022-12-27T01:19:02.129Z,71.63
2022-12-27T01:21:16.904Z,71.64
2022-12-27T01:23:31.952Z,71.94
2022-12-27T01:25:43.942Z,72.14
2022-12-27T01:27:55.526Z,71.69
2022-12-27T01:30:08.540Z,71.59
2022-12-27T01:32:20.130Z,71.42
2022-12-27T01:34:31.819Z,71.95
2022-12-27T01:36:44.532Z,72.43
2022-12-27T01:38:56.828Z,72.08
2022-12-27T01:41:33.818Z,72.09
2022-12-27T01:43:45.704Z,72.26
2022-12-27T01:45:57.302Z,71.88
2022-12-27T01:48:20.136Z,72.21
2022-12-27T01:50:39.327Z,72.31
2022-12-27T01:53:10.037Z,72.29
2022-12-27T01:55:48.148Z,72.63
2022-12-27T01:58:20.315Z,72.28
2022-12-27T02:00:32.514Z,72.42
2022-12-27T02:02:44.797Z,72.21
2022-12-27T02:04:56.908Z,72.28
2022-12-27T02:07:08.597Z,72.53
2022-12-27T02:09:38.629Z,72.50
2022-12-27T02:11:56.945Z,72.78
2022-12-27T02:14:10.382Z,72.75
2022-12-27T02:16:22.125Z,72.58
2022-12-27T02:18:34.375Z,72.81
2022-12-27T02:21:05.415Z,72.69
2022-12-27T02:23:51.623Z,72.63
2022-12-27T02:26:34.120Z,72.67
2022-12-27T02:29:02.812Z,72.53
2022-12-27T02:31:21.868Z,72.06
2022-12-27T02:33:41.953Z,72.13
2022-12-27T02:36:03.570Z,72.25
2022-12-27T02:38:17.922Z,72.50
2022-12-27T02:40:50.909Z,72.53
2022-12-27T02:43:23.280Z,72.50
2022-12-27T02:46:00.882Z,72.33
2022-12-27T02:48:33.764Z,72.15
2022-12-27T02:51:31.323Z,72.31
2022-12-27T02:54:02.684Z,72.24
2022-12-27T02:57:09.249Z,72.30
2022-12-27T03:00:06.297Z,72.52
2022-12-27T03:02:51.196Z,72.50
2022-12-27T03:05:20.263Z,72.68
2022-12-27T03:07:44.437Z,72.81
2022-12-27T03:10:29.200Z,72.75
2022-12-27T03:13:00.036Z,72.90
2022-12-27T03:15:53.146Z,72.97
2022-12-27T03:18:15.056Z,72.90
2022-12-27T03:20:46.062Z,73.35
2022-12-27T03:23:19.772Z,73.10
2022-12-27T03:25:36.177Z,73.63
2022-12-27T03:28:09.559Z,73.27
2022-12-27T03:30:40.115Z,73.36
2022-12-27T03:33:16.015Z,73.57
2022-12-27T03:35:31.626Z,73.88
2022-12-27T03:38:05.785Z,73.85
2022-12-27T03:40:31.051Z,73.79
2022-12-27T03:43:08.585Z,73.90
2022-12-27T03:45:21.868Z,73.85
2022-12-27T03:47:55.677Z,73.91
2022-12-27T03:50:16.577Z,73.54
2022-12-27T03:52:33.688Z,73.64
2022-12-27T03:54:49.252Z,73.95
2022-12-27T03:57:04.641Z,73.81
2022-12-27T03:59:16.840Z,73.71
2022-12-27T04:01:29.861Z,73.58
2022-12-27T04:03:42.203Z,73.60
2022-12-27T04:05:54.470Z,73.55
2022-12-27T04:08:24.991Z,73.74
2022-12-27T04:10:55.832Z,73.63
2022-12-27T04:13:26.638Z,73.85
2022-12-27T04:15:57.744Z,73.59
2022-12-27T04:18:28.647Z,73.46
2022-12-27T04:20:59.485Z,73.45
2022-12-27T04:23:30.014Z,73.55
2022-12-27T04:26:00.844Z,73.74
2022-12-27T04:28:31.883Z,73.40
2022-12-27T04:31:02.765Z,73.36
2022-12-27T04:33:33.765Z,73.01
2022-12-27T04:35:45.966Z,73.53
2022-12-27T04:37:57.651Z,73.17
2022-12-27T04:40:29.000Z,73.27
2022-12-27T04:43:01.377Z,73.32
2022-12-27T04:45:32.312Z,73.15
2022-12-27T04:48:03.045Z,73.17
2022-12-27T04:50:46.578Z,72.94
2022-12-27T04:53:17.221Z,73.08
2022-12-27T04:55:30.645Z,72.98
2022-12-27T04:57:42.531Z,73.15
2022-12-27T05:00:12.955Z,72.71
2022-12-27T05:02:25.102Z,72.78
2022-12-27T05:04:39.097Z,72.90
2022-12-27T05:06:51.501Z,72.57
2022-12-27T05:09:23.388Z,72.77
2022-12-27T05:11:54.306Z,73.04
2022-12-27T05:14:10.817Z,73.04
2022-12-27T05:16:23.223Z,72.95
2022-12-27T05:18:36.737Z,72.97
2022-12-27T05:20:48.424Z,73.11
2022-12-27T05:23:19.364Z,72.66
2022-12-27T05:25:38.493Z,72.89
2022-12-27T05:27:50.655Z,72.90
2022-12-27T05:30:02.642Z,72.83
2022-12-27T05:32:14.198Z,72.80
2022-12-27T05:34:25.896Z,72.36
2022-12-27T05:36:37.779Z,72.78
2022-12-27T05:38:50.631Z,72.53
2022-12-27T05:41:03.307Z,72.49
2022-12-27T05:43:15.199Z,73.12
2022-12-27T05:45:28.321Z,73.05
2022-12-27T05:47:41.236Z,72.90
2022-12-27T05:49:53.135Z,73.14
2022-12-27T05:52:05.127Z,73.33
2022-12-27T05:54:16.717Z,73.35
2022-12-27T05:56:28.294Z,73.47
2022-12-27T05:58:40.187Z,73.42
2022-12-27T06:00:51.726Z,73.60
2022-12-27T06:03:04.084Z,73.42
2022-12-27T06:05:16.405Z,73.45
2022-12-27T06:07:28.066Z,73.23
2022-12-27T06:09:40.774Z,73.45
2022-12-27T06:11:52.666Z,73.56
2022-12-27T06:14:04.252Z,73.74
2022-12-27T06:16:16.911Z,73.66
2022-12-27T06:18:31.109Z,73.93
2022-12-27T06:20:42.694Z,74.07
2022-12-27T06:22:54.349Z,73.94
2022-12-27T06:25:10.815Z,74.02
2022-12-27T06:27:25.850Z,74.40
2022-12-27T06:29:37.533Z,74.27
2022-12-27T06:31:49.766Z,74.20
2022-12-27T06:34:01.528Z,74.43
2022-12-27T06:36:16.390Z,74.76
2022-12-27T06:38:28.381Z,74.62
2022-12-27T06:40:40.275Z,74.88
2022-12-27T06:42:52.164Z,74.93
2022-12-27T06:45:05.991Z,74.97
2022-12-27T06:47:17.810Z,74.93
2022-12-27T06:49:30.100Z,74.73
2022-12-27T06:51:41.781Z,75.07
2022-12-27T06:53:53.578Z,75.30
2022-12-27T06:56:14.118Z,75.15
2022-12-27T06:58:26.165Z,75.04
2022-12-27T07:00:38.363Z,74.85
2022-12-27T07:02:50.530Z,75.07
2022-12-27T07:05:03.169Z,75.51
2022-12-27T07:07:16.020Z,75.50
2022-12-27T07:09:28.187Z,75.35
2022-12-27T07:11:40.081Z,75.42
2022-12-27T07:13:53.809Z,75.73
2022-12-27T07:16:07.116Z,75.77
2022-12-27T07:18:18.937Z,75.43
2022-12-27T07:20:30.512Z,75.26
2022-12-27T07:22:42.301Z,75.63
2022-12-27T07:24:54.194Z,76.06
2022-12-27T07:27:06.291Z,75.91
2022-12-27T07:29:18.287Z,76.05
2022-12-27T07:31:32.610Z,76.09
2022-12-27T07:33:45.352Z,76.12
2022-12-27T07:36:02.360Z,75.86
2022-12-27T07:38:14.046Z,75.86
2022-12-27T07:40:26.312Z,76.20
2022-12-27T07:42:38.241Z,76.19
2022-12-27T07:44:50.036Z,76.07
2022-12-27T07:47:02.332Z,75.78
2022-12-27T07:49:17.867Z,75.75
2022-12-27T07:51:30.325Z,75.86
2022-12-27T07:53:43.042Z,75.83
2022-12-27T07:55:55.247Z,75.84
2022-12-27T07:58:07.323Z,75.87
2022-12-27T08:00:19.358Z,75.92
2022-12-27T08:02:31.179Z,75.89
2022-12-27T08:04:43.346Z,75.59
2022-12-27T08:07:00.105Z,75.62
2022-12-27T08:09:16.041Z,75.64
2022-12-27T08:11:27.835Z,75.56
2022-12-27T08:13:39.549Z,75.46
2022-12-27T08:15:52.983Z,74.86
2022-12-27T08:18:05.146Z,74.71
2022-12-27T08:20:17.059Z,74.30
2022-12-27T08:22:29.033Z,74.01
2022-12-27T08:24:41.744Z,73.75
2022-12-27T08:26:53.412Z,73.24
2022-12-27T08:29:05.142Z,73.07
2022-12-27T08:31:16.940Z,72.89
2022-12-27T08:33:29.644Z,73.21
2022-12-27T08:35:54.626Z,72.75
2022-12-27T08:38:07.742Z,72.81
2022-12-27T08:40:19.222Z,72.31
2022-12-27T08:42:30.931Z,72.51
2022-12-27T08:44:42.543Z,72.36
2022-12-27T08:46:54.389Z,72.21
2022-12-27T08:49:06.383Z,72.08
2022-12-27T08:51:30.231Z,71.73
2022-12-27T08:53:45.129Z,71.50
2022-12-27T08:55:57.934Z,71.55
2022-12-27T08:58:16.130Z,71.61
2022-12-27T09:00:29.094Z,71.79
2022-12-27T09:02:41.271Z,71.52
2022-12-27T09:04:53.293Z,71.92
2022-12-27T09:07:05.587Z,71.76
2022-12-27T09:09:17.992Z,71.56
2022-12-27T09:11:33.392Z,71.92
2022-12-27T09:13:46.392Z,71.48
2022-12-27T09:15:58.250Z,71.95
2022-12-27T09:18:11.402Z,72.11
2022-12-27T09:20:23.952Z,71.77
2022-12-27T09:22:35.984Z,72.04
2022-12-27T09:24:48.305Z,72.24
2022-12-27T09:27:00.196Z,72.40
2022-12-27T09:29:12.501Z,72.29
2022-12-27T09:31:25.976Z,72.54
2022-12-27T09:33:38.960Z,72.55
2022-12-27T09:35:50.834Z,72.64
2022-12-27T09:38:03.041Z,72.64
2022-12-27T09:40:17.897Z,72.49
2022-12-27T09:43:04.701Z,72.92
2022-12-27T09:45:49.274Z,72.90
2022-12-27T09:48:12.227Z,72.85
2022-12-27T09:50:50.081Z,73.16
2022-12-27T09:53:17.563Z,77.65
2022-12-27T09:55:37.249Z,73.63
2022-12-27T09:57:51.097Z,71.43
2022-12-27T10:00:10.936Z,71.87
2022-12-27T10:02:26.494Z,71.66
2022-12-27T10:05:17.703Z,74.82
2022-12-27T10:07:41.334Z,73.43
2022-12-27T10:10:19.029Z,71.48
2022-12-27T10:12:59.079Z,70.82
2022-12-27T10:15:13.939Z,69.78
2022-12-27T10:17:52.696Z,69.71
2022-12-27T10:20:25.647Z,70.79
2022-12-27T10:22:48.213Z,72.62
2022-12-27T10:25:03.974Z,70.75
2022-12-27T10:27:27.847Z,69.33
2022-12-27T10:29:40.049Z,68.77
2022-12-27T10:31:53.373Z,68.86
2022-12-27T10:34:10.432Z,69.42
2022-12-27T10:36:27.912Z,69.05
2022-12-27T10:38:40.415Z,69.22
2022-12-27T10:41:08.145Z,69.11
2022-12-27T10:43:29.720Z,69.42
2022-12-27T10:45:43.139Z,69.69
2022-12-27T10:47:58.624Z,69.50
2022-12-27T10:50:13.678Z,69.86
2022-12-27T10:52:25.458Z,69.83
2022-12-27T10:54:51.410Z,69.97
2022-12-27T10:57:23.958Z,69.94
2022-12-27T10:59:36.360Z,70.25
2022-12-27T11:02:07.442Z,70.22
2022-12-27T11:04:24.422Z,69.92
2022-12-27T11:06:36.309Z,70.13
2022-12-27T11:08:49.018Z,70.07
2022-12-27T11:11:24.669Z,70.08
2022-12-27T11:13:36.663Z,70.25
2022-12-27T11:15:59.025Z,70.50
2022-12-27T11:18:18.990Z,70.22
2022-12-27T11:20:40.841Z,70.38
2022-12-27T11:22:57.068Z,70.57
2022-12-27T11:25:13.909Z,70.69
2022-12-27T11:27:29.091Z,70.41
2022-12-27T11:29:45.614Z,70.57
2022-12-27T11:32:04.291Z,70.44
2022-12-27T11:34:21.605Z,70.70
2022-12-27T11:36:40.761Z,70.06
2022-12-27T11:38:52.722Z,70.07
2022-12-27T11:41:13.918Z,70.02
2022-12-27T11:43:30.832Z,70.24
2022-12-27T11:45:50.197Z,69.96
2022-12-27T11:48:33.119Z,69.81
2022-12-27T11:50:51.443Z,70.11
2022-12-27T11:53:16.662Z,69.67
2022-12-27T11:55:49.444Z,69.48
2022-12-27T11:58:28.370Z,69.30
2022-12-27T12:00:53.879Z,70.20
2022-12-27T12:03:08.888Z,69.93
2022-12-27T12:05:50.742Z,69.68
2022-12-27T12:08:19.019Z,69.93
2022-12-27T12:11:04.911Z,69.66
2022-12-27T12:13:51.110Z,69.75
2022-12-27T12:16:26.493Z,69.63
2022-12-27T12:18:52.572Z,69.82
2022-12-27T12:21:27.307Z,69.77
2022-12-27T12:23:48.722Z,69.84
2022-12-27T12:26:09.004Z,70.35
2022-12-27T12:28:57.646Z,70.27
2022-12-27T12:31:33.217Z,70.62
2022-12-27T12:33:58.104Z,70.74
2022-12-27T12:36:27.199Z,70.45
2022-12-27T12:38:51.470Z,70.90
2022-12-27T12:41:27.336Z,70.44
2022-12-27T12:43:59.605Z,70.83
2022-12-27T12:46:39.145Z,70.89
2022-12-27T12:49:28.822Z,70.68
2022-12-27T12:52:04.066Z,70.89
2022-12-27T12:54:44.420Z,71.06
2022-12-27T12:57:26.422Z,71.14
2022-12-27T13:00:00.535Z,71.04
2022-12-27T13:02:33.254Z,71.27
2022-12-27T13:05:20.741Z,70.87
2022-12-27T13:08:02.061Z,70.94
2022-12-27T13:10:32.352Z,71.12
2022-12-27T13:13:06.875Z,71.21
2022-12-27T13:15:53.601Z,71.00
2022-12-27T13:18:15.896Z,71.17
2022-12-27T13:20:41.648Z,71.51
2022-12-27T13:23:24.459Z,71.71
2022-12-27T13:26:04.414Z,71.76
2022-12-27T13:28:33.194Z,71.83
2022-12-27T13:31:07.558Z,71.89
2022-12-27T13:33:51.756Z,71.88
2022-12-27T13:36:30.889Z,71.60
2022-12-27T13:39:13.810Z,71.69
2022-12-27T13:41:58.572Z,71.47
2022-12-27T13:44:21.120Z,71.52
2022-12-27T13:46:54.004Z,71.45
2022-12-27T13:49:40.303Z,71.67
2022-12-27T13:51:56.286Z,71.45
2022-12-27T13:54:37.881Z,71.80
2022-12-27T13:56:54.811Z,71.22
2022-12-27T13:59:27.368Z,71.07
2022-12-27T14:02:11.464Z,71.48
2022-12-27T14:04:46.034Z,71.42
2022-12-27T14:07:31.971Z,71.00
2022-12-27T14:10:06.847Z,71.31
2022-12-27T14:12:49.806Z,70.97
2022-12-27T14:15:06.796Z,71.08
2022-12-27T14:17:56.470Z,71.28
2022-12-27T14:20:29.870Z,71.47
2022-12-27T14:23:02.848Z,71.33
2022-12-27T14:25:48.148Z,71.27
2022-12-27T14:28:35.870Z,78.00
2022-12-27T14:31:25.405Z,76.78
2022-12-27T14:33:46.144Z,74.64
2022-12-27T14:36:36.225Z,70.85
2022-12-27T14:39:15.144Z,68.76
2022-12-27T14:42:05.369Z,68.69
2022-12-27T14:44:44.982Z,69.23
2022-12-27T14:47:00.049Z,69.73
2022-12-27T14:50:08.057Z,70.07
2022-12-27T14:52:49.168Z,70.80
2022-12-27T14:56:00.179Z,71.01
2022-12-27T14:58:33.332Z,70.80
2022-12-27T15:01:11.648Z,71.02
2022-12-27T15:03:55.267Z,71.37
2022-12-27T15:07:02.844Z,71.21
2022-12-27T15:09:56.513Z,71.23
2022-12-27T15:12:31.999Z,71.58
2022-12-27T15:15:37.122Z,71.80
2022-12-27T15:18:06.552Z,71.69
2022-12-27T15:20:32.222Z,71.75
2022-12-27T15:23:17.403Z,71.64
2022-12-27T15:26:03.178Z,71.50
2022-12-27T15:28:22.573Z,71.25
2022-12-27T15:30:52.905Z,71.55
2022-12-27T15:33:42.960Z,71.66
2022-12-27T15:36:03.042Z,71.51
2022-12-27T15:38:18.075Z,71.74
2022-12-27T15:40:34.155Z,71.72
2022-12-27T15:42:58.388Z,71.55
2022-12-27T15:45:22.561Z,71.61
2022-12-27T15:48:10.617Z,71.64
2022-12-27T15:50:53.315Z,71.41
2022-12-27T15:54:07.758Z,71.53
2022-12-27T15:56:57.602Z,71.63
2022-12-27T16:02:54.784Z,71.36
2022-12-27T16:05:20.858Z,71.75
2022-12-27T16:07:45.295Z,71.76
2022-12-27T16:09:58.953Z,71.79
2022-12-27T16:12:37.299Z,71.45
2022-12-27T16:15:30.182Z,71.53
2022-12-27T16:17:55.881Z,71.05
2022-12-27T16:20:26.798Z,71.46
2022-12-27T16:22:43.196Z,71.42
2022-12-27T16:24:56.520Z,70.96
2022-12-27T16:27:20.407Z,71.43
2022-12-27T16:29:43.349Z,71.38
2022-12-27T16:32:26.776Z,71.14
2022-12-27T16:34:39.387Z,71.71
2022-12-27T16:36:53.890Z,71.48
2022-12-27T16:39:11.913Z,71.32
2022-12-27T16:41:32.996Z,71.77
2022-12-27T16:44:04.906Z,71.75
2022-12-27T16:46:33.754Z,71.62
2022-12-27T16:49:08.726Z,71.60
2022-12-27T16:51:36.432Z,71.76
2022-12-27T16:54:29.696Z,71.84
2022-12-27T16:56:45.067Z,71.58
2022-12-27T16:58:58.057Z,71.70
2022-12-27T17:01:19.090Z,71.73
2022-12-27T17:03:37.152Z,72.27
2022-12-27T17:06:30.068Z,72.23
2022-12-27T17:08:24.569Z,72.23
2022-12-27T17:10:42.709Z,71.91
2022-12-27T17:13:02.999Z,72.07
2022-12-27T17:15:15.324Z,72.13
2022-12-27T17:17:28.242Z,72.14
2022-12-27T17:19:48.712Z,71.91
2022-12-27T17:22:05.115Z,72.03
2022-12-27T17:24:19.977Z,71.86
2022-12-27T17:26:46.310Z,71.54
2022-12-27T17:29:17.241Z,71.77
2022-12-27T17:32:00.772Z,71.43
2022-12-27T17:34:44.206Z,71.39
2022-12-27T17:37:09.311Z,71.27
2022-12-27T17:39:49.172Z,71.29
2022-12-27T17:42:34.948Z,71.29
2022-12-27T17:45:04.963Z,71.20
2022-12-27T17:47:45.111Z,70.86
2022-12-27T17:50:01.306Z,70.79
2022-12-27T17:52:37.777Z,70.76
2022-12-27T17:55:08.923Z,70.73
2022-12-27T17:57:40.265Z,71.22
2022-12-27T17:59:52.490Z,71.35
2022-12-27T18:02:18.551Z,71.33
2022-12-27T18:04:35.879Z,71.02
2022-12-27T18:06:48.009Z,71.30
2022-12-27T18:08:59.696Z,71.26
2022-12-27T18:11:15.797Z,71.55
2022-12-27T18:13:32.611Z,71.75
2022-12-27T18:15:46.851Z,71.92
2022-12-27T18:18:04.170Z,72.02
2022-12-27T18:20:28.845Z,72.02
2022-12-27T18:22:41.670Z,72.54
2022-12-27T18:24:53.784Z,72.41
2022-12-27T18:27:33.946Z,72.71
2022-12-27T18:29:52.334Z,72.68
2022-12-27T18:32:33.691Z,73.00
2022-12-27T18:34:57.857Z,73.17
2022-12-27T18:37:13.609Z,73.21
2022-12-27T18:39:39.379Z,73.14
2022-12-27T18:41:54.714Z,73.56
2022-12-27T18:44:15.231Z,73.57
2022-12-27T18:46:34.262Z,74.06
2022-12-27T18:48:49.615Z,73.95
2022-12-27T18:51:03.004Z,74.13
2022-12-27T18:53:36.412Z,74.04
2022-12-27T18:55:57.079Z,74.75
2022-12-27T18:58:20.527Z,74.82
2022-12-27T19:01:06.737Z,74.66
2022-12-27T19:03:21.254Z,74.81
2022-12-27T19:05:36.533Z,75.12
2022-12-27T19:08:14.959Z,75.02
2022-12-27T19:10:29.095Z,75.28
2022-12-27T19:12:56.436Z,75.21
2022-12-27T19:15:22.698Z,75.27
2022-12-27T19:17:38.570Z,75.43
2022-12-27T19:19:53.515Z,75.45
2022-12-27T19:22:30.095Z,75.43
2022-12-27T19:24:42.160Z,75.70
2022-12-27T19:26:55.819Z,75.57
2022-12-27T19:29:14.894Z,75.56
2022-12-27T19:31:27.921Z,75.43
2022-12-27T19:33:40.318Z,75.44
2022-12-27T19:35:53.331Z,75.89
2022-12-27T19:38:05.227Z,75.90
2022-12-27T19:40:17.628Z,75.73
2022-12-27T19:42:35.127Z,75.59
2022-12-27T19:44:47.160Z,75.85
2022-12-27T19:46:59.757Z,75.80
2022-12-27T19:51:43.616Z,76.10
2022-12-27T19:53:57.998Z,76.02
2022-12-27T19:56:11.931Z,76.16
2022-12-27T19:58:26.676Z,76.26
2022-12-27T20:00:38.244Z,76.45
2022-12-27T20:02:49.901Z,76.51
2022-12-27T20:05:01.827Z,76.30
2022-12-27T20:07:21.507Z,76.46
2022-12-27T20:09:33.600Z,76.47
2022-12-27T20:11:47.733Z,76.53
2022-12-27T20:14:00.281Z,76.45
2022-12-27T20:16:14.625Z,76.50
2022-12-27T20:18:27.212Z,76.74
2022-12-27T20:20:39.611Z,76.54
2022-12-27T20:22:51.103Z,76.58
2022-12-27T20:25:03.393Z,76.59
2022-12-27T20:27:15.179Z,76.56
2022-12-27T20:29:27.794Z,76.64
2022-12-27T20:31:44.746Z,76.81
2022-12-27T20:33:57.618Z,76.77
2022-12-27T20:36:11.362Z,77.02
2022-12-27T20:38:24.445Z,77.02
2022-12-27T20:40:36.776Z,77.12
2022-12-27T20:42:49.400Z,77.20
2022-12-27T20:45:05.740Z,77.08
2022-12-27T20:47:22.659Z,77.21
2022-12-27T20:49:36.227Z,77.28
2022-12-27T20:51:51.937Z,77.36
2022-12-27T20:54:09.451Z,77.51
2022-12-27T20:56:26.438Z,77.63
2022-12-27T20:58:43.865Z,77.79
2022-12-27T21:01:07.666Z,77.78
2022-12-27T21:03:24.381Z,77.71
2022-12-27T21:05:39.034Z,77.84
2022-12-27T21:07:55.662Z,77.89
2022-12-27T21:10:12.429Z,77.99
2022-12-27T21:12:27.682Z,77.97
2022-12-27T21:14:42.143Z,77.79
2022-12-27T21:16:59.903Z,78.11
2022-12-27T21:19:18.835Z,78.03
2022-12-27T21:21:38.525Z,78.11
2022-12-27T21:23:55.113Z,78.10
2022-12-27T21:26:19.338Z,78.05
2022-12-27T21:28:36.180Z,78.27
2022-12-27T21:30:59.652Z,78.31
2022-12-27T21:33:16.636Z,78.47
2022-12-27T21:35:33.421Z,78.37
2022-12-27T21:37:49.740Z,78.42
2022-12-27T21:40:06.996Z,78.41
2022-12-27T21:42:23.631Z,78.44
2022-12-27T21:44:38.977Z,80.59
2022-12-27T21:46:51.368Z,81.74
2022-12-27T21:49:09.212Z,81.26
2022-12-27T21:51:20.986Z,80.49
2022-12-27T21:53:33.187Z,79.54
2022-12-27T21:55:45.898Z,78.88
2022-12-27T21:57:57.997Z,78.69
2022-12-27T22:00:11.222Z,78.64
2022-12-27T22:02:23.787Z,78.46
2022-12-27T22:04:36.132Z,78.52
2022-12-27T22:06:48.317Z,78.38
2022-12-27T22:09:06.373Z,78.32
2022-12-27T22:11:20.985Z,78.65
2022-12-27T22:13:33.530Z,78.69
2022-12-27T22:15:55.273Z,78.75
2022-12-27T22:18:07.144Z,78.76
2022-12-27T22:20:18.832Z,79.04
2022-12-27T22:22:30.932Z,78.83
2022-12-27T22:24:42.529Z,78.91
2022-12-27T22:26:54.412Z,79.02
2022-12-27T22:29:06.599Z,79.06
2022-12-27T22:31:25.025Z,79.30
2022-12-27T22:33:37.658Z,79.55
2022-12-27T22:35:49.562Z,79.23
2022-12-27T22:38:01.557Z,79.31
2022-12-27T22:40:30.675Z,79.34
2022-12-27T22:42:43.355Z,79.38
2022-12-27T22:44:55.042Z,79.38
2022-12-27T22:47:25.874Z,79.61
2022-12-27T22:49:38.694Z,79.83
2022-12-27T22:51:50.994Z,79.88
2022-12-27T22:54:04.881Z,79.84
2022-12-27T22:56:19.696Z,79.89
2022-12-27T22:58:32.417Z,79.75
2022-12-27T23:00:44.604Z,79.79
2022-12-27T23:02:56.195Z,79.83
2022-12-27T23:05:08.081Z,79.56
2022-12-27T23:07:21.333Z,79.70
2022-12-27T23:09:53.064Z,79.85
2022-12-27T23:12:06.633Z,79.98
2022-12-27T23:14:18.691Z,79.82
2022-12-27T23:16:41.878Z,80.28
2022-12-27T23:18:54.255Z,80.28
2022-12-27T23:21:20.638Z,80.22
2022-12-27T23:23:36.574Z,80.31
2022-12-27T23:25:48.568Z,80.39
2022-12-27T23:28:00.367Z,80.54
2022-12-27T23:30:13.384Z,80.71
2022-12-27T23:32:25.064Z,80.93
2022-12-27T23:34:37.264Z,80.98
2022-12-27T23:36:49.153Z,80.88
2022-12-27T23:39:01.148Z,80.98
2022-12-27T23:41:22.768Z,80.80
2022-12-27T23:43:54.812Z,81.04
2022-12-27T23:46:12.180Z,81.18
2022-12-27T23:48:24.457Z,80.99
2022-12-27T23:50:36.348Z,80.86
2022-12-27T23:52:48.548Z,81.30
2022-12-27T23:55:00.233Z,80.93
2022-12-27T23:57:20.693Z,81.16
2022-12-27T23:59:34.668Z,81.14
